sensor_id;sensor_type;location;lat;lon;timestamp;pressure;altitude;pressure_sealevel;temperature;humidity
47913;BME280;33676;51.006;17.180;2023-07-22T00:02:11;99691.56;;;16.36;100.00
47913;BME280;33676;51.006;17.180;2023-07-22T00:04:40;99686.80;;;16.33;100.00
47913;BME280;33676;51.006;17.180;2023-07-22T00:07:08;99687.12;;;16.30;100.00
47913;BME280;33676;51.006;17.180;2023-07-22T00:09:36;99689.66;;;16.28;100.00
47913;BME280;33676;51.006;17.180;2023-07-22T00:12:08;99696.73;;;16.25;100.00
47913;BME280;33676;51.006;17.180;2023-07-22T00:14:41;99704.53;;;16.21;100.00
47913;BME280;33676;51.006;17.180;2023-07-22T00:30:28;99694.02;;;16.05;100.00
47913;BME280;33676;51.006;17.180;2023-07-22T00:32:57;99697.60;;;16.03;100.00
47913;BME280;33676;51.006;17.180;2023-07-22T00:35:25;99716.17;;;16.02;100.00
47913;BME280;33676;51.006;17.180;2023-07-22T00:37:54;99733.69;;;16.02;100.00
47913;BME280;33676;51.006;17.180;2023-07-22T00:40:22;99729.70;;;15.98;100.00
47913;BME280;33676;51.006;17.180;2023-07-22T00:42:53;99727.58;;;15.96;100.00
47913;BME280;33676;51.006;17.180;2023-07-22T00:45:22;99719.52;;;15.93;100.00
47913;BME280;33676;51.006;17.180;2023-07-22T00:47:50;99721.11;;;15.89;100.00
47913;BME280;33676;51.006;17.180;2023-07-22T00:50:19;99718.70;;;15.84;100.00
47913;BME280;33676;51.006;17.180;2023-07-22T00:52:47;99724.72;;;15.79;100.00
47913;BME280;33676;51.006;17.180;2023-07-22T00:55:16;99734.70;;;15.73;100.00
47913;BME280;33676;51.006;17.180;2023-07-22T00:57:45;99732.05;;;15.67;100.00
47913;BME280;33676;51.006;17.180;2023-07-22T01:00:13;99727.27;;;15.61;100.00
47913;BME280;33676;51.006;17.180;2023-07-22T01:02:44;99719.77;;;15.55;100.00
47913;BME280;33676;51.006;17.180;2023-07-22T01:05:14;99718.92;;;15.49;100.00
47913;BME280;33676;51.006;17.180;2023-07-22T01:07:42;99721.10;;;15.44;100.00
47913;BME280;33676;51.006;17.180;2023-07-22T01:10:13;99722.55;;;15.39;100.00
47913;BME280;33676;51.006;17.180;2023-07-22T01:12:44;99718.18;;;15.34;100.00
47913;BME280;33676;51.006;17.180;2023-07-22T01:15:13;99719.92;;;15.29;100.00
47913;BME280;33676;51.006;17.180;2023-07-22T01:17:42;99723.02;;;15.26;100.00
47913;BME280;33676;51.006;17.180;2023-07-22T01:20:11;99713.90;;;15.24;100.00
47913;BME280;33676;51.006;17.180;2023-07-22T01:22:41;99712.32;;;15.24;100.00
47913;BME280;33676;51.006;17.180;2023-07-22T01:25:11;99717.17;;;15.23;100.00
47913;BME280;33676;51.006;17.180;2023-07-22T01:27:39;99728.46;;;15.21;100.00
47913;BME280;33676;51.006;17.180;2023-07-22T01:30:08;99730.63;;;15.19;100.00
47913;BME280;33676;51.006;17.180;2023-07-22T01:32:38;99728.95;;;15.16;100.00
47913;BME280;33676;51.006;17.180;2023-07-22T01:35:08;99731.58;;;15.15;100.00
47913;BME280;33676;51.006;17.180;2023-07-22T01:37:37;99736.89;;;15.13;100.00
47913;BME280;33676;51.006;17.180;2023-07-22T01:40:06;99738.96;;;15.10;100.00
47913;BME280;33676;51.006;17.180;2023-07-22T01:42:42;99743.55;;;15.08;100.00
47913;BME280;33676;51.006;17.180;2023-07-22T01:45:11;99744.13;;;15.06;100.00
47913;BME280;33676;51.006;17.180;2023-07-22T01:47:39;99743.86;;;15.06;100.00
47913;BME280;33676;51.006;17.180;2023-07-22T01:50:09;99744.85;;;15.05;100.00
47913;BME280;33676;51.006;17.180;2023-07-22T01:52:38;99742.84;;;15.04;100.00
47913;BME280;33676;51.006;17.180;2023-07-22T01:55:07;99751.44;;;15.02;100.00
47913;BME280;33676;51.006;17.180;2023-07-22T01:57:39;99752.95;;;15.00;100.00
47913;BME280;33676;51.006;17.180;2023-07-22T02:00:09;99756.50;;;14.96;100.00
47913;BME280;33676;51.006;17.180;2023-07-22T02:02:39;99763.13;;;14.92;100.00
47913;BME280;33676;51.006;17.180;2023-07-22T02:05:09;99764.62;;;14.87;100.00
47913;BME280;33676;51.006;17.180;2023-07-22T02:07:39;99769.45;;;14.83;100.00
47913;BME280;33676;51.006;17.180;2023-07-22T02:10:08;99763.41;;;14.80;100.00
47913;BME280;33676;51.006;17.180;2023-07-22T02:12:38;99775.04;;;14.77;100.00
47913;BME280;33676;51.006;17.180;2023-07-22T02:15:10;99779.57;;;14.74;100.00
47913;BME280;33676;51.006;17.180;2023-07-22T02:17:38;99781.44;;;14.71;100.00
47913;BME280;33676;51.006;17.180;2023-07-22T02:20:07;99776.22;;;14.69;100.00
47913;BME280;33676;51.006;17.180;2023-07-22T02:22:37;99775.32;;;14.67;100.00
47913;BME280;33676;51.006;17.180;2023-07-22T02:25:06;99770.42;;;14.66;100.00
47913;BME280;33676;51.006;17.180;2023-07-22T02:27:35;99766.92;;;14.64;100.00
47913;BME280;33676;51.006;17.180;2023-07-22T02:30:04;99769.92;;;14.62;100.00
47913;BME280;33676;51.006;17.180;2023-07-22T02:32:32;99774.88;;;14.60;100.00
47913;BME280;33676;51.006;17.180;2023-07-22T02:35:01;99773.98;;;14.58;100.00
47913;BME280;33676;51.006;17.180;2023-07-22T02:37:29;99772.80;;;14.57;100.00
47913;BME280;33676;51.006;17.180;2023-07-22T02:39:58;99775.54;;;14.56;100.00
47913;BME280;33676;51.006;17.180;2023-07-22T02:57:06;99788.16;;;14.57;100.00
47913;BME280;33676;51.006;17.180;2023-07-22T02:59:35;99792.71;;;14.57;100.00
47913;BME280;33676;51.006;17.180;2023-07-22T03:02:03;99798.41;;;14.58;100.00
47913;BME280;33676;51.006;17.180;2023-07-22T03:04:32;99802.48;;;14.58;100.00
47913;BME280;33676;51.006;17.180;2023-07-22T03:07:01;99803.10;;;14.57;100.00
47913;BME280;33676;51.006;17.180;2023-07-22T03:09:29;99801.38;;;14.56;100.00
47913;BME280;33676;51.006;17.180;2023-07-22T03:11:58;99803.50;;;14.56;100.00
47913;BME280;33676;51.006;17.180;2023-07-22T03:14:26;99809.08;;;14.57;100.00
47913;BME280;33676;51.006;17.180;2023-07-22T03:16:55;99809.48;;;14.58;100.00
47913;BME280;33676;51.006;17.180;2023-07-22T03:19:23;99811.10;;;14.60;100.00
47913;BME280;33676;51.006;17.180;2023-07-22T03:21:52;99809.00;;;14.62;100.00
47913;BME280;33676;51.006;17.180;2023-07-22T03:24:20;99806.01;;;14.63;100.00
47913;BME280;33676;51.006;17.180;2023-07-22T03:26:49;99808.04;;;14.66;100.00
47913;BME280;33676;51.006;17.180;2023-07-22T03:29:17;99811.38;;;14.67;100.00
47913;BME280;33676;51.006;17.180;2023-07-22T03:31:46;99815.84;;;14.70;100.00
47913;BME280;33676;51.006;17.180;2023-07-22T03:34:14;99816.68;;;14.72;100.00
47913;BME280;33676;51.006;17.180;2023-07-22T03:36:43;99818.70;;;14.75;100.00
47913;BME280;33676;51.006;17.180;2023-07-22T03:39:11;99818.28;;;14.77;100.00
47913;BME280;33676;51.006;17.180;2023-07-22T03:41:39;99826.03;;;14.81;100.00
47913;BME280;33676;51.006;17.180;2023-07-22T03:44:08;99821.82;;;14.84;100.00
47913;BME280;33676;51.006;17.180;2023-07-22T03:46:38;99820.48;;;14.86;100.00
47913;BME280;33676;51.006;17.180;2023-07-22T04:02:26;99832.45;;;15.13;100.00
47913;BME280;33676;51.006;17.180;2023-07-22T04:04:56;99839.70;;;15.16;100.00
47913;BME280;33676;51.006;17.180;2023-07-22T04:07:25;99842.42;;;15.20;100.00
47913;BME280;33676;51.006;17.180;2023-07-22T04:09:53;99845.34;;;15.23;100.00
47913;BME280;33676;51.006;17.180;2023-07-22T04:12:22;99845.88;;;15.25;100.00
47913;BME280;33676;51.006;17.180;2023-07-22T04:14:50;99847.89;;;15.26;100.00
47913;BME280;33676;51.006;17.180;2023-07-22T04:17:19;99851.39;;;15.28;100.00
47913;BME280;33676;51.006;17.180;2023-07-22T04:19:47;99849.91;;;15.29;100.00
47913;BME280;33676;51.006;17.180;2023-07-22T04:22:15;99851.52;;;15.28;100.00
47913;BME280;33676;51.006;17.180;2023-07-22T04:24:44;99854.80;;;15.29;100.00
47913;BME280;33676;51.006;17.180;2023-07-22T04:27:12;99853.55;;;15.29;100.00
47913;BME280;33676;51.006;17.180;2023-07-22T04:29:41;99853.75;;;15.31;100.00
47913;BME280;33676;51.006;17.180;2023-07-22T04:32:12;99857.46;;;15.34;100.00
47913;BME280;33676;51.006;17.180;2023-07-22T04:34:41;99855.63;;;15.36;100.00
47913;BME280;33676;51.006;17.180;2023-07-22T04:37:10;99856.45;;;15.38;100.00
47913;BME280;33676;51.006;17.180;2023-07-22T04:39:38;99859.21;;;15.42;100.00
47913;BME280;33676;51.006;17.180;2023-07-22T04:42:06;99864.64;;;15.46;100.00
47913;BME280;33676;51.006;17.180;2023-07-22T04:44:35;99862.41;;;15.50;100.00
47913;BME280;33676;51.006;17.180;2023-07-22T04:47:04;99866.13;;;15.55;100.00
47913;BME280;33676;51.006;17.180;2023-07-22T04:49:32;99870.89;;;15.59;100.00
47913;BME280;33676;51.006;17.180;2023-07-22T04:52:01;99872.75;;;15.64;100.00
47913;BME280;33676;51.006;17.180;2023-07-22T04:54:30;99876.73;;;15.68;100.00
47913;BME280;33676;51.006;17.180;2023-07-22T04:56:58;99874.23;;;15.72;100.00
47913;BME280;33676;51.006;17.180;2023-07-22T04:59:31;99874.67;;;15.76;100.00
47913;BME280;33676;51.006;17.180;2023-07-22T05:01:59;99876.98;;;15.79;100.00
47913;BME280;33676;51.006;17.180;2023-07-22T05:04:27;99882.16;;;15.83;100.00
47913;BME280;33676;51.006;17.180;2023-07-22T05:06:56;99885.20;;;15.90;100.00
47913;BME280;33676;51.006;17.180;2023-07-22T05:09:24;99885.02;;;15.95;100.00
47913;BME280;33676;51.006;17.180;2023-07-22T05:11:53;99882.77;;;16.01;100.00
47913;BME280;33676;51.006;17.180;2023-07-22T05:14:24;99882.81;;;16.07;100.00
47913;BME280;33676;51.006;17.180;2023-07-22T05:16:52;99882.20;;;16.12;100.00
47913;BME280;33676;51.006;17.180;2023-07-22T05:19:21;99883.09;;;16.17;100.00
47913;BME280;33676;51.006;17.180;2023-07-22T05:21:50;99886.92;;;16.22;100.00
47913;BME280;33676;51.006;17.180;2023-07-22T05:24:18;99886.41;;;16.28;100.00
47913;BME280;33676;51.006;17.180;2023-07-22T05:26:46;99891.53;;;16.34;100.00
47913;BME280;33676;51.006;17.180;2023-07-22T05:29:34;99897.52;;;16.39;100.00
47913;BME280;33676;51.006;17.180;2023-07-22T05:32:04;99898.24;;;16.43;100.00
47913;BME280;33676;51.006;17.180;2023-07-22T05:34:39;99910.72;;;16.45;100.00
47913;BME280;33676;51.006;17.180;2023-07-22T05:37:07;99911.95;;;16.49;100.00
47913;BME280;33676;51.006;17.180;2023-07-22T05:39:35;99913.56;;;16.53;100.00
47913;BME280;33676;51.006;17.180;2023-07-22T05:42:05;99911.61;;;16.55;100.00
47913;BME280;33676;51.006;17.180;2023-07-22T05:44:33;99914.76;;;16.57;100.00
47913;BME280;33676;51.006;17.180;2023-07-22T05:47:02;99907.08;;;16.60;100.00
47913;BME280;33676;51.006;17.180;2023-07-22T05:49:30;99912.30;;;16.62;100.00
47913;BME280;33676;51.006;17.180;2023-07-22T05:51:58;99912.95;;;16.65;100.00
47913;BME280;33676;51.006;17.180;2023-07-22T05:54:27;99913.32;;;16.70;100.00
47913;BME280;33676;51.006;17.180;2023-07-22T05:56:55;99918.45;;;16.73;100.00
47913;BME280;33676;51.006;17.180;2023-07-22T05:59:24;99913.08;;;16.76;100.00
47913;BME280;33676;51.006;17.180;2023-07-22T06:01:52;99912.59;;;16.78;100.00
47913;BME280;33676;51.006;17.180;2023-07-22T06:04:20;99913.02;;;16.83;100.00
47913;BME280;33676;51.006;17.180;2023-07-22T06:06:49;99917.70;;;16.90;100.00
47913;BME280;33676;51.006;17.180;2023-07-22T06:09:17;99916.98;;;16.96;100.00
47913;BME280;33676;51.006;17.180;2023-07-22T06:11:46;99922.45;;;17.01;100.00
47913;BME280;33676;51.006;17.180;2023-07-22T06:14:14;99925.55;;;17.07;100.00
47913;BME280;33676;51.006;17.180;2023-07-22T06:16:43;99933.58;;;17.12;100.00
47913;BME280;33676;51.006;17.180;2023-07-22T06:19:13;99934.23;;;17.17;100.00
47913;BME280;33676;51.006;17.180;2023-07-22T06:21:41;99929.71;;;17.25;100.00
47913;BME280;33676;51.006;17.180;2023-07-22T06:24:10;99926.14;;;17.31;100.00
47913;BME280;33676;51.006;17.180;2023-07-22T06:26:38;99920.05;;;17.38;100.00
47913;BME280;33676;51.006;17.180;2023-07-22T06:29:07;99926.22;;;17.46;100.00
47913;BME280;33676;51.006;17.180;2023-07-22T06:31:35;99925.60;;;17.51;100.00
47913;BME280;33676;51.006;17.180;2023-07-22T06:34:04;99926.97;;;17.57;100.00
47913;BME280;33676;51.006;17.180;2023-07-22T06:36:32;99931.16;;;17.62;100.00
47913;BME280;33676;51.006;17.180;2023-07-22T06:39:03;99930.61;;;17.68;100.00
47913;BME280;33676;51.006;17.180;2023-07-22T06:41:32;99933.27;;;17.76;100.00
47913;BME280;33676;51.006;17.180;2023-07-22T06:44:00;99934.16;;;17.84;100.00
47913;BME280;33676;51.006;17.180;2023-07-22T06:46:28;99934.29;;;17.92;100.00
47913;BME280;33676;51.006;17.180;2023-07-22T06:48:59;99936.53;;;18.00;100.00
47913;BME280;33676;51.006;17.180;2023-07-22T06:51:27;99940.29;;;18.09;100.00
47913;BME280;33676;51.006;17.180;2023-07-22T06:53:56;99941.44;;;18.16;100.00
47913;BME280;33676;51.006;17.180;2023-07-22T06:56:24;99944.77;;;18.23;100.00
47913;BME280;33676;51.006;17.180;2023-07-22T06:58:54;99945.06;;;18.30;100.00
47913;BME280;33676;51.006;17.180;2023-07-22T07:01:23;99945.10;;;18.34;100.00
47913;BME280;33676;51.006;17.180;2023-07-22T07:03:52;99956.91;;;18.39;100.00
47913;BME280;33676;51.006;17.180;2023-07-22T07:06:20;99951.24;;;18.47;100.00
47913;BME280;33676;51.006;17.180;2023-07-22T07:08:49;99954.88;;;18.58;100.00
47913;BME280;33676;51.006;17.180;2023-07-22T07:11:17;99965.83;;;18.66;100.00
47913;BME280;33676;51.006;17.180;2023-07-22T07:13:46;99967.07;;;18.76;100.00
47913;BME280;33676;51.006;17.180;2023-07-22T07:16:28;99966.70;;;18.84;100.00
47913;BME280;33676;51.006;17.180;2023-07-22T07:18:59;99963.84;;;18.89;100.00
47913;BME280;33676;51.006;17.180;2023-07-22T07:21:28;99969.48;;;18.89;100.00
47913;BME280;33676;51.006;17.180;2023-07-22T07:23:57;99966.52;;;18.90;100.00
47913;BME280;33676;51.006;17.180;2023-07-22T07:26:26;99975.51;;;18.95;100.00
47913;BME280;33676;51.006;17.180;2023-07-22T07:28:55;99982.17;;;18.99;100.00
47913;BME280;33676;51.006;17.180;2023-07-22T07:31:24;99981.70;;;19.01;99.91
47913;BME280;33676;51.006;17.180;2023-07-22T07:33:56;99990.66;;;19.05;99.37
47913;BME280;33676;51.006;17.180;2023-07-22T07:36:26;99989.75;;;19.09;99.68
47913;BME280;33676;51.006;17.180;2023-07-22T07:38:56;99991.73;;;19.21;99.98
47913;BME280;33676;51.006;17.180;2023-07-22T07:41:24;99991.79;;;19.35;99.81
47913;BME280;33676;51.006;17.180;2023-07-22T07:43:54;99987.52;;;19.50;99.87
47913;BME280;33676;51.006;17.180;2023-07-22T07:46:26;99994.31;;;19.59;99.00
47913;BME280;33676;51.006;17.180;2023-07-22T07:48:58;99993.73;;;19.58;98.55
47913;BME280;33676;51.006;17.180;2023-07-22T07:51:33;99993.77;;;19.60;98.26
47913;BME280;33676;51.006;17.180;2023-07-22T07:54:04;99997.29;;;19.67;97.66
47913;BME280;33676;51.006;17.180;2023-07-22T07:56:37;100004.16;;;19.77;98.16
47913;BME280;33676;51.006;17.180;2023-07-22T07:59:05;100000.32;;;19.88;98.23
47913;BME280;33676;51.006;17.180;2023-07-22T08:01:40;100002.44;;;20.01;98.35
47913;BME280;33676;51.006;17.180;2023-07-22T08:04:11;99999.32;;;20.06;97.22
47913;BME280;33676;51.006;17.180;2023-07-22T08:06:42;99999.93;;;20.03;96.38
47913;BME280;33676;51.006;17.180;2023-07-22T08:09:11;100011.50;;;19.98;95.36
47913;BME280;33676;51.006;17.180;2023-07-22T08:11:45;100009.19;;;19.97;94.63
47913;BME280;33676;51.006;17.180;2023-07-22T08:14:13;100008.54;;;20.01;93.89
47913;BME280;33676;51.006;17.180;2023-07-22T08:16:44;100000.30;;;20.07;94.20
47913;BME280;33676;51.006;17.180;2023-07-22T08:19:13;100007.34;;;20.16;94.53
47913;BME280;33676;51.006;17.180;2023-07-22T08:21:41;100011.84;;;20.20;93.59
47913;BME280;33676;51.006;17.180;2023-07-22T08:24:14;100012.09;;;20.28;93.54
47913;BME280;33676;51.006;17.180;2023-07-22T08:26:43;100010.80;;;20.38;93.58
47913;BME280;33676;51.006;17.180;2023-07-22T08:29:12;100016.79;;;20.49;93.27
47913;BME280;33676;51.006;17.180;2023-07-22T08:31:42;100016.75;;;20.58;93.38
47913;BME280;33676;51.006;17.180;2023-07-22T08:34:10;100022.87;;;20.63;92.22
47913;BME280;33676;51.006;17.180;2023-07-22T08:36:38;100034.80;;;20.66;90.47
47913;BME280;33676;51.006;17.180;2023-07-22T08:39:07;100032.40;;;20.65;89.54
47913;BME280;33676;51.006;17.180;2023-07-22T08:41:36;100026.19;;;20.63;90.31
47913;BME280;33676;51.006;17.180;2023-07-22T08:44:08;100028.72;;;20.70;89.69
47913;BME280;33676;51.006;17.180;2023-07-22T08:46:39;100028.34;;;20.77;89.41
47913;BME280;33676;51.006;17.180;2023-07-22T08:49:10;100035.93;;;20.79;89.46
47913;BME280;33676;51.006;17.180;2023-07-22T08:51:39;100035.10;;;20.77;88.97
47913;BME280;33676;51.006;17.180;2023-07-22T08:54:10;100042.11;;;20.77;88.15
47913;BME280;33676;51.006;17.180;2023-07-22T08:56:39;100030.15;;;20.81;88.13
47913;BME280;33676;51.006;17.180;2023-07-22T08:59:08;100029.05;;;20.96;88.74
47913;BME280;33676;51.006;17.180;2023-07-22T09:01:38;100031.98;;;21.09;88.29
47913;BME280;33676;51.006;17.180;2023-07-22T09:04:08;100033.98;;;21.20;87.84
47913;BME280;33676;51.006;17.180;2023-07-22T09:06:36;100033.80;;;21.23;87.46
47913;BME280;33676;51.006;17.180;2023-07-22T09:09:05;100036.92;;;21.29;86.70
47913;BME280;33676;51.006;17.180;2023-07-22T09:11:36;100034.38;;;21.38;85.90
47913;BME280;33676;51.006;17.180;2023-07-22T09:14:05;100028.70;;;21.53;86.38
47913;BME280;33676;51.006;17.180;2023-07-22T09:16:35;100032.45;;;21.70;86.01
47913;BME280;33676;51.006;17.180;2023-07-22T09:19:05;100031.99;;;21.76;84.95
47913;BME280;33676;51.006;17.180;2023-07-22T09:21:33;100037.99;;;21.78;84.20
47913;BME280;33676;51.006;17.180;2023-07-22T09:24:21;100036.48;;;21.85;83.72
47913;BME280;33676;51.006;17.180;2023-07-22T09:26:51;100037.80;;;21.95;83.80
47913;BME280;33676;51.006;17.180;2023-07-22T09:29:38;100039.34;;;22.03;83.21
47913;BME280;33676;51.006;17.180;2023-07-22T09:32:08;100040.52;;;22.02;82.41
47913;BME280;33676;51.006;17.180;2023-07-22T09:34:37;100042.16;;;21.96;80.80
47913;BME280;33676;51.006;17.180;2023-07-22T09:37:06;100043.01;;;21.92;79.94
47913;BME280;33676;51.006;17.180;2023-07-22T09:39:35;100034.80;;;21.96;80.10
47913;BME280;33676;51.006;17.180;2023-07-22T09:42:04;100041.09;;;22.08;80.17
47913;BME280;33676;51.006;17.180;2023-07-22T09:44:34;100037.27;;;22.14;80.07
47913;BME280;33676;51.006;17.180;2023-07-22T09:47:07;100034.34;;;22.26;80.18
47913;BME280;33676;51.006;17.180;2023-07-22T09:49:40;100032.93;;;22.45;80.09
47913;BME280;33676;51.006;17.180;2023-07-22T09:52:11;100031.27;;;22.62;79.80
47913;BME280;33676;51.006;17.180;2023-07-22T09:54:48;100031.34;;;22.74;79.60
47913;BME280;33676;51.006;17.180;2023-07-22T09:57:20;100033.16;;;22.91;78.67
47913;BME280;33676;51.006;17.180;2023-07-22T09:59:51;100039.55;;;23.04;78.31
47913;BME280;33676;51.006;17.180;2023-07-22T10:02:22;100036.42;;;23.11;77.23
47913;BME280;33676;51.006;17.180;2023-07-22T10:04:52;100041.77;;;23.13;77.25
47913;BME280;33676;51.006;17.180;2023-07-22T10:07:21;100050.13;;;23.13;76.07
47913;BME280;33676;51.006;17.180;2023-07-22T10:09:54;100043.66;;;23.12;76.09
47913;BME280;33676;51.006;17.180;2023-07-22T10:12:24;100046.95;;;23.16;76.17
47913;BME280;33676;51.006;17.180;2023-07-22T10:14:53;100045.06;;;23.19;75.63
47913;BME280;33676;51.006;17.180;2023-07-22T10:17:22;100049.00;;;23.33;75.58
47913;BME280;33676;51.006;17.180;2023-07-22T10:19:52;100046.38;;;23.55;75.33
47913;BME280;33676;51.006;17.180;2023-07-22T10:22:23;100044.20;;;23.70;74.91
47913;BME280;33676;51.006;17.180;2023-07-22T10:24:53;100048.89;;;23.86;74.29
47913;BME280;33676;51.006;17.180;2023-07-22T10:27:23;100055.67;;;23.96;72.35
47913;BME280;33676;51.006;17.180;2023-07-22T10:29:54;100042.71;;;24.03;72.40
47913;BME280;33676;51.006;17.180;2023-07-22T10:32:23;100041.49;;;24.21;72.78
47913;BME280;33676;51.006;17.180;2023-07-22T10:44:09;100054.34;;;24.36;69.39
47913;BME280;33676;51.006;17.180;2023-07-22T10:46:38;100052.33;;;24.42;69.66
47913;BME280;33676;51.006;17.180;2023-07-22T10:51:40;100050.65;;;24.88;70.53
47913;BME280;33676;51.006;17.180;2023-07-22T10:54:14;100049.30;;;25.18;70.30
47913;BME280;33676;51.006;17.180;2023-07-22T10:56:44;100059.70;;;25.23;68.53
47913;BME280;33676;51.006;17.180;2023-07-22T10:59:12;100068.70;;;25.04;66.56
47913;BME280;33676;51.006;17.180;2023-07-22T11:01:44;100057.38;;;25.04;67.32
47913;BME280;33676;51.006;17.180;2023-07-22T11:12:15;100062.92;;;25.66;66.22
47913;BME280;33676;51.006;17.180;2023-07-22T11:14:51;100057.24;;;25.84;66.41
47913;BME280;33676;51.006;17.180;2023-07-22T11:17:31;100056.20;;;26.08;65.60
47913;BME280;33676;51.006;17.180;2023-07-22T11:20:01;100058.79;;;26.18;64.79
47913;BME280;33676;51.006;17.180;2023-07-22T11:22:30;100057.16;;;25.95;63.57
47913;BME280;33676;51.006;17.180;2023-07-22T11:24:59;100053.11;;;25.63;62.77
47913;BME280;33676;51.006;17.180;2023-07-22T11:27:28;100043.79;;;25.62;63.41
47913;BME280;33676;51.006;17.180;2023-07-22T11:29:58;100048.59;;;25.86;64.59
47913;BME280;33676;51.006;17.180;2023-07-22T11:32:27;100049.80;;;26.10;64.49
47913;BME280;33676;51.006;17.180;2023-07-22T11:34:55;100048.05;;;26.36;64.34
47913;BME280;33676;51.006;17.180;2023-07-22T11:37:24;100044.20;;;26.61;63.15
47913;BME280;33676;51.006;17.180;2023-07-22T11:39:52;100046.39;;;26.88;62.22
47913;BME280;33676;51.006;17.180;2023-07-22T11:42:21;100043.51;;;26.93;61.48
47913;BME280;33676;51.006;17.180;2023-07-22T11:44:49;100044.05;;;26.76;61.07
47913;BME280;33676;51.006;17.180;2023-07-22T11:47:18;100039.48;;;26.58;60.35
47913;BME280;33676;51.006;17.180;2023-07-22T11:49:47;100041.98;;;26.30;59.70
47913;BME280;33676;51.006;17.180;2023-07-22T11:52:17;100038.89;;;26.22;60.42
47913;BME280;33676;51.006;17.180;2023-07-22T11:54:46;100036.84;;;26.27;60.57
47913;BME280;33676;51.006;17.180;2023-07-22T11:57:23;100033.09;;;26.26;60.29
47913;BME280;33676;51.006;17.180;2023-07-22T11:59:54;100046.39;;;26.08;58.97
47913;BME280;33676;51.006;17.180;2023-07-22T12:02:28;100045.73;;;25.74;58.69
47913;BME280;33676;51.006;17.180;2023-07-22T12:05:06;100051.38;;;25.47;59.19
47913;BME280;33676;51.006;17.180;2023-07-22T12:07:37;100052.20;;;25.32;59.37
47913;BME280;33676;51.006;17.180;2023-07-22T12:10:07;100058.80;;;25.28;59.13
47913;BME280;33676;51.006;17.180;2023-07-22T12:12:46;100051.62;;;25.32;59.26
47913;BME280;33676;51.006;17.180;2023-07-22T12:15:18;100048.73;;;25.26;59.34
47913;BME280;33676;51.006;17.180;2023-07-22T12:17:59;100047.89;;;25.15;59.12
47913;BME280;33676;51.006;17.180;2023-07-22T12:20:31;100046.52;;;25.04;59.42
47913;BME280;33676;51.006;17.180;2023-07-22T12:23:00;100047.10;;;25.15;59.39
47913;BME280;33676;51.006;17.180;2023-07-22T12:25:28;100049.50;;;25.33;59.92
47913;BME280;33676;51.006;17.180;2023-07-22T12:27:57;100057.98;;;25.41;59.19
47913;BME280;33676;51.006;17.180;2023-07-22T12:30:26;100048.15;;;25.61;58.74
47913;BME280;33676;51.006;17.180;2023-07-22T12:32:56;100047.71;;;25.71;58.89
47913;BME280;33676;51.006;17.180;2023-07-22T12:35:25;100044.42;;;25.78;59.03
47913;BME280;33676;51.006;17.180;2023-07-22T12:37:53;100048.40;;;25.76;58.37
47913;BME280;33676;51.006;17.180;2023-07-22T12:40:22;100046.09;;;25.68;57.66
47913;BME280;33676;51.006;17.180;2023-07-22T12:42:50;100043.19;;;25.65;57.67
47913;BME280;33676;51.006;17.180;2023-07-22T12:45:19;100041.72;;;25.68;58.01
47913;BME280;33676;51.006;17.180;2023-07-22T12:47:47;100038.58;;;25.71;58.00
47913;BME280;33676;51.006;17.180;2023-07-22T12:50:17;100037.72;;;26.01;58.31
47913;BME280;33676;51.006;17.180;2023-07-22T12:52:45;100035.44;;;26.35;58.41
47913;BME280;33676;51.006;17.180;2023-07-22T12:55:14;100039.23;;;26.50;57.88
47913;BME280;33676;51.006;17.180;2023-07-22T12:57:43;100041.69;;;26.45;57.41
47913;BME280;33676;51.006;17.180;2023-07-22T13:00:11;100040.14;;;26.47;57.24
47913;BME280;33676;51.006;17.180;2023-07-22T13:02:40;100032.79;;;26.48;56.95
47913;BME280;33676;51.006;17.180;2023-07-22T13:05:09;100029.89;;;26.55;56.78
47913;BME280;33676;51.006;17.180;2023-07-22T13:07:38;100030.87;;;26.72;55.79
47913;BME280;33676;51.006;17.180;2023-07-22T13:10:08;100028.26;;;27.01;55.26
47913;BME280;33676;51.006;17.180;2023-07-22T13:12:39;100025.37;;;27.47;54.90
47913;BME280;33676;51.006;17.180;2023-07-22T13:15:08;100026.64;;;27.96;55.07
47913;BME280;33676;51.006;17.180;2023-07-22T13:17:37;100025.96;;;28.27;54.48
47913;BME280;33676;51.006;17.180;2023-07-22T13:20:06;100027.21;;;28.22;53.62
47913;BME280;33676;51.006;17.180;2023-07-22T13:22:39;100029.20;;;28.05;52.96
47913;BME280;33676;51.006;17.180;2023-07-22T13:25:08;100031.65;;;28.01;53.01
47913;BME280;33676;51.006;17.180;2023-07-22T13:27:39;100023.80;;;28.11;52.89
47913;BME280;33676;51.006;17.180;2023-07-22T13:30:09;100023.48;;;27.96;52.75
47913;BME280;33676;51.006;17.180;2023-07-22T13:32:39;100027.98;;;27.87;52.78
47913;BME280;33676;51.006;17.180;2023-07-22T13:35:08;100017.78;;;27.95;52.55
47913;BME280;33676;51.006;17.180;2023-07-22T13:37:37;100015.64;;;28.23;52.37
47913;BME280;33676;51.006;17.180;2023-07-22T13:40:07;100013.52;;;28.59;52.14
47913;BME280;33676;51.006;17.180;2023-07-22T13:42:39;100013.68;;;29.07;52.99
47913;BME280;33676;51.006;17.180;2023-07-22T13:45:08;100014.44;;;29.21;52.19
47913;BME280;33676;51.006;17.180;2023-07-22T13:47:36;100009.90;;;29.18;51.79
47913;BME280;33676;51.006;17.180;2023-07-22T13:50:05;100002.50;;;28.95;51.41
47913;BME280;33676;51.006;17.180;2023-07-22T13:53:12;100004.27;;;28.73;51.51
47913;BME280;33676;51.006;17.180;2023-07-22T13:55:41;100000.53;;;28.49;51.42